sensor_id;sensor_type;location;lat;lon;timestamp;P1;durP1;ratioP1;P2;durP2;ratioP2
10645;SDS011;5371;49.782;9.932;2022-08-19T00:01:17;28.58;;;22.15;;
10645;SDS011;5371;49.782;9.932;2022-08-19T00:03:45;28.08;;;22.80;;
10645;SDS011;5371;49.782;9.932;2022-08-19T00:06:13;26.30;;;21.85;;
10645;SDS011;5371;49.782;9.932;2022-08-19T00:08:40;28.25;;;21.83;;
10645;SDS011;5371;49.782;9.932;2022-08-19T00:11:13;28.13;;;23.10;;
10645;SDS011;5371;49.782;9.932;2022-08-19T00:13:42;27.55;;;22.50;;
10645;SDS011;5371;49.782;9.932;2022-08-19T00:16:12;26.63;;;22.35;;
10645;SDS011;5371;49.782;9.932;2022-08-19T00:18:43;27.70;;;22.80;;
10645;SDS011;5371;49.782;9.932;2022-08-19T00:21:10;24.52;;;21.75;;
10645;SDS011;5371;49.782;9.932;2022-08-19T00:23:38;25.45;;;21.98;;
10645;SDS011;5371;49.782;9.932;2022-08-19T00:26:07;27.23;;;22.25;;
10645;SDS011;5371;49.782;9.932;2022-08-19T00:28:35;25.98;;;21.48;;
10645;SDS011;5371;49.782;9.932;2022-08-19T00:31:07;24.88;;;21.38;;
10645;SDS011;5371;49.782;9.932;2022-08-19T00:33:35;26.50;;;22.13;;
10645;SDS011;5371;49.782;9.932;2022-08-19T00:36:06;25.10;;;20.92;;
10645;SDS011;5371;49.782;9.932;2022-08-19T00:38:37;26.70;;;21.58;;
10645;SDS011;5371;49.782;9.932;2022-08-19T00:41:07;27.55;;;22.08;;
10645;SDS011;5371;49.782;9.932;2022-08-19T00:43:38;25.92;;;21.77;;
10645;SDS011;5371;49.782;9.932;2022-08-19T00:46:08;24.40;;;20.35;;
10645;SDS011;5371;49.782;9.932;2022-08-19T00:48:40;23.17;;;20.38;;
10645;SDS011;5371;49.782;9.932;2022-08-19T00:51:12;25.05;;;21.30;;
10645;SDS011;5371;49.782;9.932;2022-08-19T00:53:41;25.00;;;20.65;;
10645;SDS011;5371;49.782;9.932;2022-08-19T00:56:08;25.92;;;21.70;;
10645;SDS011;5371;49.782;9.932;2022-08-19T00:58:38;27.67;;;20.70;;
10645;SDS011;5371;49.782;9.932;2022-08-19T01:01:06;23.33;;;20.17;;
10645;SDS011;5371;49.782;9.932;2022-08-19T01:03:38;23.13;;;20.63;;
10645;SDS011;5371;49.782;9.932;2022-08-19T01:06:08;23.73;;;20.08;;
10645;SDS011;5371;49.782;9.932;2022-08-19T01:08:40;23.45;;;20.02;;
10645;SDS011;5371;49.782;9.932;2022-08-19T01:11:07;22.35;;;19.90;;
10645;SDS011;5371;49.782;9.932;2022-08-19T01:13:39;24.40;;;18.75;;
10645;SDS011;5371;49.782;9.932;2022-08-19T01:16:08;25.73;;;20.63;;
10645;SDS011;5371;49.782;9.932;2022-08-19T01:18:41;22.15;;;19.75;;
10645;SDS011;5371;49.782;9.932;2022-08-19T01:21:10;22.15;;;19.83;;
10645;SDS011;5371;49.782;9.932;2022-08-19T01:23:49;21.95;;;19.55;;
10645;SDS011;5371;49.782;9.932;2022-08-19T01:26:19;22.80;;;19.00;;
10645;SDS011;5371;49.782;9.932;2022-08-19T01:28:51;22.48;;;18.80;;
10645;SDS011;5371;49.782;9.932;2022-08-19T01:31:23;22.15;;;19.35;;
10645;SDS011;5371;49.782;9.932;2022-08-19T01:33:54;25.00;;;19.25;;
10645;SDS011;5371;49.782;9.932;2022-08-19T01:36:27;24.38;;;20.25;;
10645;SDS011;5371;49.782;9.932;2022-08-19T01:39:00;22.42;;;18.90;;
10645;SDS011;5371;49.782;9.932;2022-08-19T01:41:30;23.17;;;19.38;;
10645;SDS011;5371;49.782;9.932;2022-08-19T01:43:59;25.00;;;19.23;;
10645;SDS011;5371;49.782;9.932;2022-08-19T01:46:29;21.67;;;18.92;;
10645;SDS011;5371;49.782;9.932;2022-08-19T01:48:57;21.30;;;18.48;;
10645;SDS011;5371;49.782;9.932;2022-08-19T01:51:26;26.20;;;19.65;;
10645;SDS011;5371;49.782;9.932;2022-08-19T01:54:01;26.00;;;19.95;;
10645;SDS011;5371;49.782;9.932;2022-08-19T01:56:30;22.92;;;18.77;;
10645;SDS011;5371;49.782;9.932;2022-08-19T01:59:03;23.27;;;19.33;;
10645;SDS011;5371;49.782;9.932;2022-08-19T02:01:35;24.73;;;18.95;;
10645;SDS011;5371;49.782;9.932;2022-08-19T02:04:03;21.85;;;19.25;;
10645;SDS011;5371;49.782;9.932;2022-08-19T02:06:33;22.67;;;18.55;;
10645;SDS011;5371;49.782;9.932;2022-08-19T02:09:09;21.92;;;18.63;;
10645;SDS011;5371;49.782;9.932;2022-08-19T02:11:42;24.13;;;19.02;;
10645;SDS011;5371;49.782;9.932;2022-08-19T02:14:09;22.00;;;18.73;;
10645;SDS011;5371;49.782;9.932;2022-08-19T02:16:37;23.67;;;18.80;;
10645;SDS011;5371;49.782;9.932;2022-08-19T02:19:05;22.13;;;19.63;;
10645;SDS011;5371;49.782;9.932;2022-08-19T02:21:33;21.05;;;18.25;;
10645;SDS011;5371;49.782;9.932;2022-08-19T02:24:00;26.38;;;19.52;;
10645;SDS011;5371;49.782;9.932;2022-08-19T02:26:31;22.90;;;18.73;;
10645;SDS011;5371;49.782;9.932;2022-08-19T02:28:59;23.50;;;19.10;;
10645;SDS011;5371;49.782;9.932;2022-08-19T02:31:28;22.52;;;18.88;;
10645;SDS011;5371;49.782;9.932;2022-08-19T02:33:56;22.55;;;18.33;;
10645;SDS011;5371;49.782;9.932;2022-08-19T02:36:25;20.50;;;17.60;;
10645;SDS011;5371;49.782;9.932;2022-08-19T02:38:53;21.25;;;18.38;;
10645;SDS011;5371;49.782;9.932;2022-08-19T02:41:22;24.20;;;19.98;;
10645;SDS011;5371;49.782;9.932;2022-08-19T02:43:52;23.30;;;18.75;;
10645;SDS011;5371;49.782;9.932;2022-08-19T02:46:22;21.45;;;18.30;;
10645;SDS011;5371;49.782;9.932;2022-08-19T02:48:55;21.73;;;17.42;;
10645;SDS011;5371;49.782;9.932;2022-08-19T02:51:25;22.17;;;18.55;;
10645;SDS011;5371;49.782;9.932;2022-08-19T02:53:54;19.75;;;17.63;;
10645;SDS011;5371;49.782;9.932;2022-08-19T02:56:22;22.75;;;17.95;;
10645;SDS011;5371;49.782;9.932;2022-08-19T02:58:55;22.38;;;17.85;;
10645;SDS011;5371;49.782;9.932;2022-08-19T03:01:36;22.92;;;18.33;;
10645;SDS011;5371;49.782;9.932;2022-08-19T03:04:06;21.05;;;17.95;;
10645;SDS011;5371;49.782;9.932;2022-08-19T03:06:36;20.83;;;17.70;;
10645;SDS011;5371;49.782;9.932;2022-08-19T03:09:03;21.58;;;18.70;;
10645;SDS011;5371;49.782;9.932;2022-08-19T03:11:32;23.25;;;19.40;;
10645;SDS011;5371;49.782;9.932;2022-08-19T03:14:02;21.05;;;17.85;;
10645;SDS011;5371;49.782;9.932;2022-08-19T03:16:33;19.90;;;17.65;;
10645;SDS011;5371;49.782;9.932;2022-08-19T03:19:07;21.90;;;18.13;;
10645;SDS011;5371;49.782;9.932;2022-08-19T03:21:39;19.92;;;17.63;;
10645;SDS011;5371;49.782;9.932;2022-08-19T03:24:10;21.38;;;18.13;;
10645;SDS011;5371;49.782;9.932;2022-08-19T03:26:39;22.75;;;18.33;;
10645;SDS011;5371;49.782;9.932;2022-08-19T03:29:13;20.90;;;17.98;;
10645;SDS011;5371;49.782;9.932;2022-08-19T03:31:43;21.75;;;17.85;;
10645;SDS011;5371;49.782;9.932;2022-08-19T03:34:14;19.83;;;17.73;;
10645;SDS011;5371;49.782;9.932;2022-08-19T03:36:44;20.85;;;17.65;;
10645;SDS011;5371;49.782;9.932;2022-08-19T03:39:15;21.40;;;17.83;;
10645;SDS011;5371;49.782;9.932;2022-08-19T03:41:46;21.60;;;17.88;;
10645;SDS011;5371;49.782;9.932;2022-08-19T03:44:18;20.27;;;17.75;;
10645;SDS011;5371;49.782;9.932;2022-08-19T03:46:49;20.88;;;18.55;;
10645;SDS011;5371;49.782;9.932;2022-08-19T03:49:18;22.98;;;19.13;;
10645;SDS011;5371;49.782;9.932;2022-08-19T03:51:48;21.55;;;17.98;;
10645;SDS011;5371;49.782;9.932;2022-08-19T03:54:16;24.58;;;18.52;;
10645;SDS011;5371;49.782;9.932;2022-08-19T03:56:47;21.48;;;18.15;;
10645;SDS011;5371;49.782;9.932;2022-08-19T03:59:18;23.98;;;18.48;;
10645;SDS011;5371;49.782;9.932;2022-08-19T04:01:52;21.27;;;17.52;;
10645;SDS011;5371;49.782;9.932;2022-08-19T04:04:21;19.08;;;17.02;;
10645;SDS011;5371;49.782;9.932;2022-08-19T04:06:49;19.52;;;17.42;;
10645;SDS011;5371;49.782;9.932;2022-08-19T04:09:16;21.80;;;18.02;;
10645;SDS011;5371;49.782;9.932;2022-08-19T04:11:46;21.63;;;17.80;;
10645;SDS011;5371;49.782;9.932;2022-08-19T04:14:16;21.13;;;17.23;;
10645;SDS011;5371;49.782;9.932;2022-08-19T04:16:47;21.17;;;17.38;;
10645;SDS011;5371;49.782;9.932;2022-08-19T04:19:17;20.45;;;17.80;;
10645;SDS011;5371;49.782;9.932;2022-08-19T04:21:47;22.10;;;18.23;;
10645;SDS011;5371;49.782;9.932;2022-08-19T04:24:20;18.55;;;16.60;;
10645;SDS011;5371;49.782;9.932;2022-08-19T04:26:56;20.85;;;17.60;;
10645;SDS011;5371;49.782;9.932;2022-08-19T04:29:32;21.15;;;17.52;;
10645;SDS011;5371;49.782;9.932;2022-08-19T04:32:00;22.70;;;17.98;;
10645;SDS011;5371;49.782;9.932;2022-08-19T04:34:28;19.95;;;17.42;;
10645;SDS011;5371;49.782;9.932;2022-08-19T04:36:57;21.17;;;17.45;;
10645;SDS011;5371;49.782;9.932;2022-08-19T04:39:26;21.33;;;18.95;;
10645;SDS011;5371;49.782;9.932;2022-08-19T04:42:15;21.25;;;17.90;;
10645;SDS011;5371;49.782;9.932;2022-08-19T04:45:03;22.40;;;17.98;;
10645;SDS011;5371;49.782;9.932;2022-08-19T04:47:35;21.77;;;18.30;;
10645;SDS011;5371;49.782;9.932;2022-08-19T04:50:02;20.55;;;17.35;;
10645;SDS011;5371;49.782;9.932;2022-08-19T04:52:30;20.27;;;18.08;;
10645;SDS011;5371;49.782;9.932;2022-08-19T04:54:58;21.95;;;17.50;;
10645;SDS011;5371;49.782;9.932;2022-08-19T04:57:26;21.20;;;18.75;;
10645;SDS011;5371;49.782;9.932;2022-08-19T04:59:54;24.17;;;18.08;;
10645;SDS011;5371;49.782;9.932;2022-08-19T05:02:25;19.75;;;16.25;;
10645;SDS011;5371;49.782;9.932;2022-08-19T05:04:56;19.27;;;16.98;;
10645;SDS011;5371;49.782;9.932;2022-08-19T05:07:27;19.45;;;16.73;;
10645;SDS011;5371;49.782;9.932;2022-08-19T05:09:56;21.67;;;17.52;;
10645;SDS011;5371;49.782;9.932;2022-08-19T05:12:25;20.02;;;16.58;;
10645;SDS011;5371;49.782;9.932;2022-08-19T05:14:54;19.80;;;17.08;;
10645;SDS011;5371;49.782;9.932;2022-08-19T05:17:23;18.85;;;16.00;;
10645;SDS011;5371;49.782;9.932;2022-08-19T05:19:54;19.48;;;16.52;;
10645;SDS011;5371;49.782;9.932;2022-08-19T05:22:44;19.25;;;16.33;;
10645;SDS011;5371;49.782;9.932;2022-08-19T05:25:15;22.42;;;16.63;;
10645;SDS011;5371;49.782;9.932;2022-08-19T05:27:45;21.58;;;16.00;;
10645;SDS011;5371;49.782;9.932;2022-08-19T05:30:16;19.55;;;16.67;;
10645;SDS011;5371;49.782;9.932;2022-08-19T05:32:46;20.42;;;15.98;;
10645;SDS011;5371;49.782;9.932;2022-08-19T05:35:15;22.63;;;17.35;;
10645;SDS011;5371;49.782;9.932;2022-08-19T05:37:45;21.23;;;16.90;;
10645;SDS011;5371;49.782;9.932;2022-08-19T05:40:14;19.05;;;16.38;;
10645;SDS011;5371;49.782;9.932;2022-08-19T05:42:42;19.17;;;15.75;;
10645;SDS011;5371;49.782;9.932;2022-08-19T05:45:10;17.92;;;16.02;;
10645;SDS011;5371;49.782;9.932;2022-08-19T05:47:38;17.95;;;15.95;;
10645;SDS011;5371;49.782;9.932;2022-08-19T05:50:09;19.65;;;16.48;;
10645;SDS011;5371;49.782;9.932;2022-08-19T05:52:38;19.50;;;16.45;;
10645;SDS011;5371;49.782;9.932;2022-08-19T05:55:08;21.55;;;16.42;;
10645;SDS011;5371;49.782;9.932;2022-08-19T05:57:38;20.75;;;16.70;;
10645;SDS011;5371;49.782;9.932;2022-08-19T06:02:59;18.05;;;15.43;;
10645;SDS011;5371;49.782;9.932;2022-08-19T06:05:34;20.50;;;16.10;;
10645;SDS011;5371;49.782;9.932;2022-08-19T06:08:02;20.25;;;16.42;;
10645;SDS011;5371;49.782;9.932;2022-08-19T06:10:32;19.70;;;15.75;;
10645;SDS011;5371;49.782;9.932;2022-08-19T06:13:02;18.98;;;15.60;;
10645;SDS011;5371;49.782;9.932;2022-08-19T06:15:32;20.60;;;17.05;;
10645;SDS011;5371;49.782;9.932;2022-08-19T06:18:02;23.52;;;16.60;;
10645;SDS011;5371;49.782;9.932;2022-08-19T06:20:35;20.40;;;15.70;;
10645;SDS011;5371;49.782;9.932;2022-08-19T06:23:06;18.23;;;15.38;;
10645;SDS011;5371;49.782;9.932;2022-08-19T06:25:35;20.13;;;16.40;;
10645;SDS011;5371;49.782;9.932;2022-08-19T06:28:08;21.05;;;15.05;;
10645;SDS011;5371;49.782;9.932;2022-08-19T06:30:38;20.42;;;15.45;;
10645;SDS011;5371;49.782;9.932;2022-08-19T06:33:07;18.50;;;14.93;;
10645;SDS011;5371;49.782;9.932;2022-08-19T06:35:39;19.63;;;15.80;;
10645;SDS011;5371;49.782;9.932;2022-08-19T06:38:07;18.73;;;15.32;;
10645;SDS011;5371;49.782;9.932;2022-08-19T06:40:35;18.90;;;15.55;;
10645;SDS011;5371;49.782;9.932;2022-08-19T06:43:03;19.98;;;15.73;;
10645;SDS011;5371;49.782;9.932;2022-08-19T06:45:31;16.75;;;14.52;;
10645;SDS011;5371;49.782;9.932;2022-08-19T06:48:01;17.73;;;14.65;;
10645;SDS011;5371;49.782;9.932;2022-08-19T06:50:29;17.38;;;15.13;;
10645;SDS011;5371;49.782;9.932;2022-08-19T06:52:58;18.20;;;15.20;;
10645;SDS011;5371;49.782;9.932;2022-08-19T06:55:29;17.75;;;14.90;;
10645;SDS011;5371;49.782;9.932;2022-08-19T06:57:56;17.27;;;14.73;;
10645;SDS011;5371;49.782;9.932;2022-08-19T07:00:23;16.77;;;15.00;;
10645;SDS011;5371;49.782;9.932;2022-08-19T07:02:50;19.10;;;14.57;;
10645;SDS011;5371;49.782;9.932;2022-08-19T07:05:18;17.83;;;14.32;;
10645;SDS011;5371;49.782;9.932;2022-08-19T07:07:51;18.55;;;15.18;;
10645;SDS011;5371;49.782;9.932;2022-08-19T07:10:20;17.48;;;14.07;;
10645;SDS011;5371;49.782;9.932;2022-08-19T07:12:47;16.13;;;14.43;;
10645;SDS011;5371;49.782;9.932;2022-08-19T07:15:16;17.02;;;14.90;;
10645;SDS011;5371;49.782;9.932;2022-08-19T07:17:49;15.38;;;13.80;;
10645;SDS011;5371;49.782;9.932;2022-08-19T07:20:20;16.77;;;14.85;;
10645;SDS011;5371;49.782;9.932;2022-08-19T07:22:49;19.05;;;14.05;;
10645;SDS011;5371;49.782;9.932;2022-08-19T07:25:16;15.48;;;13.85;;
10645;SDS011;5371;49.782;9.932;2022-08-19T07:27:49;17.98;;;14.55;;
10645;SDS011;5371;49.782;9.932;2022-08-19T07:30:17;17.33;;;14.02;;
10645;SDS011;5371;49.782;9.932;2022-08-19T07:32:44;17.27;;;13.52;;
10645;SDS011;5371;49.782;9.932;2022-08-19T07:35:11;17.98;;;13.52;;
10645;SDS011;5371;49.782;9.932;2022-08-19T07:37:40;15.02;;;13.45;;
10645;SDS011;5371;49.782;9.932;2022-08-19T07:40:10;17.05;;;13.43;;
10645;SDS011;5371;49.782;9.932;2022-08-19T07:42:39;16.27;;;13.70;;
10645;SDS011;5371;49.782;9.932;2022-08-19T07:45:09;18.70;;;13.75;;
10645;SDS011;5371;49.782;9.932;2022-08-19T07:47:39;16.13;;;14.30;;
10645;SDS011;5371;49.782;9.932;2022-08-19T07:50:09;15.50;;;13.90;;
10645;SDS011;5371;49.782;9.932;2022-08-19T07:52:40;18.95;;;14.38;;
10645;SDS011;5371;49.782;9.932;2022-08-19T07:55:11;17.48;;;14.00;;
10645;SDS011;5371;49.782;9.932;2022-08-19T07:57:38;17.30;;;14.45;;
10645;SDS011;5371;49.782;9.932;2022-08-19T08:00:11;16.17;;;14.48;;
10645;SDS011;5371;49.782;9.932;2022-08-19T08:02:39;19.40;;;14.88;;
10645;SDS011;5371;49.782;9.932;2022-08-19T08:05:08;16.52;;;14.20;;
10645;SDS011;5371;49.782;9.932;2022-08-19T08:07:50;17.75;;;14.70;;
10645;SDS011;5371;49.782;9.932;2022-08-19T08:10:35;15.70;;;13.65;;
10645;SDS011;5371;49.782;9.932;2022-08-19T08:13:05;15.63;;;14.02;;
10645;SDS011;5371;49.782;9.932;2022-08-19T08:15:34;16.92;;;14.57;;
10645;SDS011;5371;49.782;9.932;2022-08-19T08:18:07;14.80;;;13.23;;
10645;SDS011;5371;49.782;9.932;2022-08-19T08:20:38;16.00;;;14.30;;
10645;SDS011;5371;49.782;9.932;2022-08-19T08:23:06;15.90;;;13.82;;
10645;SDS011;5371;49.782;9.932;2022-08-19T08:25:50;14.80;;;13.25;;
10645;SDS011;5371;49.782;9.932;2022-08-19T08:28:20;15.40;;;13.38;;
10645;SDS011;5371;49.782;9.932;2022-08-19T08:30:50;15.05;;;13.55;;
10645;SDS011;5371;49.782;9.932;2022-08-19T08:33:18;18.25;;;13.52;;
10645;SDS011;5371;49.782;9.932;2022-08-19T08:35:47;14.35;;;13.00;;
10645;SDS011;5371;49.782;9.932;2022-08-19T08:38:15;15.73;;;13.27;;
10645;SDS011;5371;49.782;9.932;2022-08-19T08:40:45;17.05;;;12.45;;
10645;SDS011;5371;49.782;9.932;2022-08-19T08:43:19;14.77;;;13.27;;
10645;SDS011;5371;49.782;9.932;2022-08-19T08:45:55;15.05;;;12.88;;
10645;SDS011;5371;49.782;9.932;2022-08-19T08:48:30;17.10;;;13.10;;
10645;SDS011;5371;49.782;9.932;2022-08-19T08:51:07;14.15;;;12.57;;
10645;SDS011;5371;49.782;9.932;2022-08-19T08:53:41;14.15;;;12.57;;
10645;SDS011;5371;49.782;9.932;2022-08-19T08:56:13;13.85;;;12.45;;
10645;SDS011;5371;49.782;9.932;2022-08-19T08:58:45;13.40;;;12.10;;
10645;SDS011;5371;49.782;9.932;2022-08-19T09:01:21;14.52;;;13.05;;
10645;SDS011;5371;49.782;9.932;2022-08-19T09:03:51;14.32;;;12.88;;
10645;SDS011;5371;49.782;9.932;2022-08-19T09:06:23;15.00;;;12.52;;
10645;SDS011;5371;49.782;9.932;2022-08-19T09:09:03;15.75;;;12.93;;
10645;SDS011;5371;49.782;9.932;2022-08-19T09:11:44;13.38;;;11.95;;
10645;SDS011;5371;49.782;9.932;2022-08-19T09:14:25;14.02;;;12.30;;
10645;SDS011;5371;49.782;9.932;2022-08-19T09:17:08;14.38;;;12.88;;
10645;SDS011;5371;49.782;9.932;2022-08-19T09:19:46;12.93;;;11.63;;
10645;SDS011;5371;49.782;9.932;2022-08-19T09:22:18;14.15;;;11.50;;
10645;SDS011;5371;49.782;9.932;2022-08-19T09:24:50;13.80;;;11.55;;
10645;SDS011;5371;49.782;9.932;2022-08-19T09:27:20;13.63;;;12.18;;
10645;SDS011;5371;49.782;9.932;2022-08-19T09:29:50;13.90;;;12.60;;
10645;SDS011;5371;49.782;9.932;2022-08-19T09:32:21;13.70;;;12.30;;
10645;SDS011;5371;49.782;9.932;2022-08-19T09:34:52;13.23;;;11.85;;
10645;SDS011;5371;49.782;9.932;2022-08-19T09:37:20;14.90;;;11.98;;
10645;SDS011;5371;49.782;9.932;2022-08-19T09:39:48;13.27;;;11.98;;
10645;SDS011;5371;49.782;9.932;2022-08-19T09:42:17;14.10;;;11.35;;
10645;SDS011;5371;49.782;9.932;2022-08-19T09:44:45;13.25;;;11.75;;
10645;SDS011;5371;49.782;9.932;2022-08-19T09:47:15;13.82;;;12.13;;
10645;SDS011;5371;49.782;9.932;2022-08-19T09:49:45;14.30;;;11.07;;
10645;SDS011;5371;49.782;9.932;2022-08-19T09:52:15;12.15;;;10.57;;
10645;SDS011;5371;49.782;9.932;2022-08-19T09:54:45;10.52;;;8.95;;
10645;SDS011;5371;49.782;9.932;2022-08-19T09:57:12;11.10;;;9.48;;
10645;SDS011;5371;49.782;9.932;2022-08-19T09:59:40;10.25;;;8.43;;
10645;SDS011;5371;49.782;9.932;2022-08-19T10:02:11;9.32;;;8.38;;
10645;SDS011;5371;49.782;9.932;2022-08-19T10:04:46;10.65;;;8.18;;
10645;SDS011;5371;49.782;9.932;2022-08-19T10:07:31;10.20;;;8.63;;
10645;SDS011;5371;49.782;9.932;2022-08-19T10:10:00;8.90;;;7.80;;
10645;SDS011;5371;49.782;9.932;2022-08-19T10:12:29;9.65;;;7.88;;
10645;SDS011;5371;49.782;9.932;2022-08-19T10:14:58;10.07;;;7.80;;
10645;SDS011;5371;49.782;9.932;2022-08-19T10:17:27;13.25;;;7.78;;
10645;SDS011;5371;49.782;9.932;2022-08-19T10:20:02;8.60;;;7.70;;
10645;SDS011;5371;49.782;9.932;2022-08-19T10:22:32;9.40;;;7.13;;
10645;SDS011;5371;49.782;9.932;2022-08-19T10:25:05;9.15;;;7.40;;
10645;SDS011;5371;49.782;9.932;2022-08-19T10:27:36;7.80;;;6.85;;
10645;SDS011;5371;49.782;9.932;2022-08-19T10:30:05;9.18;;;7.00;;
10645;SDS011;5371;49.782;9.932;2022-08-19T10:32:33;7.10;;;6.40;;
10645;SDS011;5371;49.782;9.932;2022-08-19T10:35:03;7.53;;;6.13;;
10645;SDS011;5371;49.782;9.932;2022-08-19T10:37:33;7.68;;;5.95;;
10645;SDS011;5371;49.782;9.932;2022-08-19T10:40:05;6.22;;;5.65;;
10645;SDS011;5371;49.782;9.932;2022-08-19T10:42:50;8.32;;;5.90;;
10645;SDS011;5371;49.782;9.932;2022-08-19T10:45:18;6.43;;;5.53;;
10645;SDS011;5371;49.782;9.932;2022-08-19T10:47:52;6.10;;;5.40;;
10645;SDS011;5371;49.782;9.932;2022-08-19T10:50:24;5.95;;;5.03;;
10645;SDS011;5371;49.782;9.932;2022-08-19T10:53:08;5.55;;;4.93;;
10645;SDS011;5371;49.782;9.932;2022-08-19T10:55:36;7.93;;;5.18;;
10645;SDS011;5371;49.782;9.932;2022-08-19T10:58:21;6.72;;;4.82;;
10645;SDS011;5371;49.782;9.932;2022-08-19T11:00:51;5.63;;;4.72;;
10645;SDS011;5371;49.782;9.932;2022-08-19T11:03:20;6.55;;;4.63;;
10645;SDS011;5371;49.782;9.932;2022-08-19T11:05:58;5.72;;;4.40;;
10645;SDS011;5371;49.782;9.932;2022-08-19T11:08:26;6.30;;;4.50;;
10645;SDS011;5371;49.782;9.932;2022-08-19T11:10:58;4.90;;;4.40;;
10645;SDS011;5371;49.782;9.932;2022-08-19T11:13:28;6.70;;;4.20;;
10645;SDS011;5371;49.782;9.932;2022-08-19T11:15:57;6.00;;;4.20;;
10645;SDS011;5371;49.782;9.932;2022-08-19T11:18:26;4.45;;;4.05;;
10645;SDS011;5371;49.782;9.932;2022-08-19T11:20:54;7.82;;;4.55;;
10645;SDS011;5371;49.782;9.932;2022-08-19T11:23:23;5.05;;;4.35;;
10645;SDS011;5371;49.782;9.932;2022-08-19T11:25:53;7.28;;;4.70;;
10645;SDS011;5371;49.782;9.932;2022-08-19T11:28:20;4.85;;;4.40;;
10645;SDS011;5371;49.782;9.932;2022-08-19T11:30:52;5.10;;;4.60;;
10645;SDS011;5371;49.782;9.932;2022-08-19T11:33:20;5.65;;;5.00;;
10645;SDS011;5371;49.782;9.932;2022-08-19T11:35:48;5.88;;;5.15;;
10645;SDS011;5371;49.782;9.932;2022-08-19T11:38:17;5.80;;;4.53;;
10645;SDS011;5371;49.782;9.932;2022-08-19T11:40:58;5.32;;;4.82;;
10645;SDS011;5371;49.782;9.932;2022-08-19T11:43:28;7.95;;;4.82;;
10645;SDS011;5371;49.782;9.932;2022-08-19T11:45:57;5.65;;;4.40;;
10645;SDS011;5371;49.782;9.932;2022-08-19T11:48:27;6.53;;;4.57;;
10645;SDS011;5371;49.782;9.932;2022-08-19T11:50:59;7.18;;;5.00;;
10645;SDS011;5371;49.782;9.932;2022-08-19T11:53:32;5.97;;;4.40;;
10645;SDS011;5371;49.782;9.932;2022-08-19T11:56:02;4.20;;;3.90;;
10645;SDS011;5371;49.782;9.932;2022-08-19T11:58:31;6.38;;;4.50;;
10645;SDS011;5371;49.782;9.932;2022-08-19T12:01:04;5.68;;;4.28;;
10645;SDS011;5371;49.782;9.932;2022-08-19T12:03:37;6.57;;;4.15;;
10645;SDS011;5371;49.782;9.932;2022-08-19T12:06:06;5.40;;;4.00;;
10645;SDS011;5371;49.782;9.932;2022-08-19T12:08:38;5.15;;;3.97;;
10645;SDS011;5371;49.782;9.932;2022-08-19T12:11:07;5.30;;;4.00;;
10645;SDS011;5371;49.782;9.932;2022-08-19T12:13:35;6.28;;;4.07;;
10645;SDS011;5371;49.782;9.932;2022-08-19T12:16:10;4.78;;;4.32;;
10645;SDS011;5371;49.782;9.932;2022-08-19T12:18:41;5.18;;;4.40;;
10645;SDS011;5371;49.782;9.932;2022-08-19T12:21:11;6.03;;;4.10;;
10645;SDS011;5371;49.782;9.932;2022-08-19T12:23:41;5.82;;;4.70;;
10645;SDS011;5371;49.782;9.932;2022-08-19T12:26:13;5.70;;;4.40;;
10645;SDS011;5371;49.782;9.932;2022-08-19T12:28:42;5.60;;;4.47;;
10645;SDS011;5371;49.782;9.932;2022-08-19T12:31:11;4.57;;;4.18;;
10645;SDS011;5371;49.782;9.932;2022-08-19T12:33:41;7.07;;;4.22;;
10645;SDS011;5371;49.782;9.932;2022-08-19T12:36:10;6.05;;;4.10;;
10645;SDS011;5371;49.782;9.932;2022-08-19T12:38:40;6.28;;;4.10;;
10645;SDS011;5371;49.782;9.932;2022-08-19T12:41:09;5.50;;;4.03;;
10645;SDS011;5371;49.782;9.932;2022-08-19T12:43:42;5.68;;;3.88;;
10645;SDS011;5371;49.782;9.932;2022-08-19T12:46:11;5.57;;;3.92;;
10645;SDS011;5371;49.782;9.932;2022-08-19T12:48:39;4.50;;;3.72;;
10645;SDS011;5371;49.782;9.932;2022-08-19T12:51:11;6.13;;;3.70;;
10645;SDS011;5371;49.782;9.932;2022-08-19T12:54:00;5.00;;;3.97;;
10645;SDS011;5371;49.782;9.932;2022-08-19T12:56:28;5.68;;;4.03;;
10645;SDS011;5371;49.782;9.932;2022-08-19T12:59:04;5.97;;;3.88;;
10645;SDS011;5371;49.782;9.932;2022-08-19T13:01:33;4.05;;;3.67;;
10645;SDS011;5371;49.782;9.932;2022-08-19T13:04:01;4.05;;;3.17;;
10645;SDS011;5371;49.782;9.932;2022-08-19T13:06:31;4.00;;;3.22;;
10645;SDS011;5371;49.782;9.932;2022-08-19T13:09:01;3.80;;;3.05;;
10645;SDS011;5371;49.782;9.932;2022-08-19T13:11:31;3.55;;;3.25;;
10645;SDS011;5371;49.782;9.932;2022-08-19T13:14:00;3.70;;;3.25;;
10645;SDS011;5371;49.782;9.932;2022-08-19T13:16:30;3.55;;;3.15;;
10645;SDS011;5371;49.782;9.932;2022-08-19T13:18:58;3.30;;;3.00;;
10645;SDS011;5371;49.782;9.932;2022-08-19T13:21:28;5.05;;;3.25;;
10645;SDS011;5371;49.782;9.932;2022-08-19T13:23:58;3.63;;;3.10;;
10645;SDS011;5371;49.782;9.932;2022-08-19T13:26:26;3.53;;;3.20;;
10645;SDS011;5371;49.782;9.932;2022-08-19T13:28:55;3.20;;;2.90;;
10645;SDS011;5371;49.782;9.932;2022-08-19T13:31:43;3.20;;;2.90;;
10645;SDS011;5371;49.782;9.932;2022-08-19T13:34:29;4.35;;;3.35;;
10645;SDS011;5371;49.782;9.932;2022-08-19T13:36:59;6.55;;;2.75;;
10645;SDS011;5371;49.782;9.932;2022-08-19T13:39:31;3.20;;;2.90;;
10645;SDS011;5371;49.782;9.932;2022-08-19T13:42:00;5.57;;;2.85;;
10645;SDS011;5371;49.782;9.932;2022-08-19T13:44:29;3.10;;;2.67;;
10645;SDS011;5371;49.782;9.932;2022-08-19T13:47:02;2.92;;;2.70;;
10645;SDS011;5371;49.782;9.932;2022-08-19T13:49:32;6.47;;;2.90;;
10645;SDS011;5371;49.782;9.932;2022-08-19T13:52:01;3.65;;;2.67;;
10645;SDS011;5371;49.782;9.932;2022-08-19T13:54:30;3.83;;;2.88;;
10645;SDS011;5371;49.782;9.932;2022-08-19T13:56:59;3.63;;;2.80;;
10645;SDS011;5371;49.782;9.932;2022-08-19T13:59:28;4.28;;;2.90;;
10645;SDS011;5371;49.782;9.932;2022-08-19T14:01:58;3.30;;;3.00;;
10645;SDS011;5371;49.782;9.932;2022-08-19T14:04:28;3.42;;;2.50;;
10645;SDS011;5371;49.782;9.932;2022-08-19T14:06:55;4.55;;;2.80;;
10645;SDS011;5371;49.782;9.932;2022-08-19T14:09:23;5.13;;;2.80;;
10645;SDS011;5371;49.782;9.932;2022-08-19T14:11:50;4.20;;;3.00;;
10645;SDS011;5371;49.782;9.932;2022-08-19T14:14:19;3.63;;;2.80;;
10645;SDS011;5371;49.782;9.932;2022-08-19T14:16:47;3.45;;;2.90;;
10645;SDS011;5371;49.782;9.932;2022-08-19T14:19:17;3.28;;;2.97;;
10645;SDS011;5371;49.782;9.932;2022-08-19T14:21:46;5.10;;;2.83;;
10645;SDS011;5371;49.782;9.932;2022-08-19T14:24:27;2.95;;;2.63;;
10645;SDS011;5371;49.782;9.932;2022-08-19T14:26:54;3.28;;;2.80;;
10645;SDS011;5371;49.782;9.932;2022-08-19T14:29:22;3.22;;;2.92;;
10645;SDS011;5371;49.782;9.932;2022-08-19T14:31:50;3.95;;;2.63;;
10645;SDS011;5371;49.782;9.932;2022-08-19T14:34:19;3.50;;;2.65;;
10645;SDS011;5371;49.782;9.932;2022-08-19T14:36:51;6.20;;;2.85;;
10645;SDS011;5371;49.782;9.932;2022-08-19T14:39:20;2.70;;;2.50;;
10645;SDS011;5371;49.782;9.932;2022-08-19T14:41:47;3.20;;;2.90;;
10645;SDS011;5371;49.782;9.932;2022-08-19T14:44:14;4.97;;;2.80;;
10645;SDS011;5371;49.782;9.932;2022-08-19T14:46:43;4.63;;;2.65;;
10645;SDS011;5371;49.782;9.932;2022-08-19T14:49:11;5.70;;;3.13;;
10645;SDS011;5371;49.782;9.932;2022-08-19T14:51:38;4.10;;;2.90;;
10645;SDS011;5371;49.782;9.932;2022-08-19T14:54:07;3.88;;;3.22;;
10645;SDS011;5371;49.782;9.932;2022-08-19T14:56:35;4.72;;;2.53;;
10645;SDS011;5371;49.782;9.932;2022-08-19T14:59:03;4.00;;;2.63;;
10645;SDS011;5371;49.782;9.932;2022-08-19T15:01:31;4.22;;;2.45;;
10645;SDS011;5371;49.782;9.932;2022-08-19T15:04:00;2.90;;;2.60;;
10645;SDS011;5371;49.782;9.932;2022-08-19T15:06:29;4.07;;;2.35;;